Time;durP1;ratioP1;P1;durP2;ratioP2;P2;SDS_P1;SDS_P2;PMS_P1;PMS_P2;Temp;Humidity;BMP_temperature;BMP_pressure;BME280_temperature;BME280_humidity;BME280_pressure;Samples;Min_cycle;Max_cycle;Signal;HPM_P1;HPM_P2
2022/02/10 00:15:55;;;;;;;19.10;9.73;;;;;;;-0.71;66.61;93545.91;2051052;70;20252;-73
2022/02/10 00:18:30;;;;;;;21.13;9.03;;;;;;;-0.76;65.92;93535.66;2051015;70;20648;-70
2022/02/10 00:21:03;;;;;;;16.40;7.82;;;;;;;-0.65;65.42;93530.00;2050975;70;20291;-73
2022/02/10 00:23:51;;;;;;;18.88;8.85;;;;;;;-0.80;66.66;93538.69;2047962;70;20146;-73
2022/02/10 00:34:32;;;;;;;16.23;9.13;;;;;;;-1.14;67.31;93529.22;2050415;70;20166;-76
2022/02/10 00:41:53;;;;;;;17.42;8.70;;;;;;;-0.94;67.14;93528.78;2050998;70;20142;-71
2022/02/10 00:44:26;;;;;;;17.88;8.35;;;;;;;-1.12;66.66;93524.66;2051136;70;20134;-74
2022/02/10 00:46:51;;;;;;;14.32;7.38;;;;;;;-1.03;66.77;93520.81;2051107;70;20178;-70
2022/02/10 00:49:17;;;;;;;14.00;7.22;;;;;;;-0.99;65.99;93518.53;2050382;70;20591;-70
2022/02/10 00:51:43;;;;;;;17.98;7.25;;;;;;;-1.02;66.71;93509.22;2047646;70;20142;-71
2022/02/10 00:54:10;;;;;;;16.95;7.68;;;;;;;-0.95;66.47;93521.00;2051038;70;20529;-72
2022/02/10 00:56:36;;;;;;;18.13;8.23;;;;;;;-1.06;66.69;93525.34;2051195;70;20146;-71
2022/02/10 01:29:38;;;;;;;22.17;11.65;;;;;;;-1.52;67.47;93536.50;2044782;70;20778;-70
2022/02/10 01:32:05;;;;;;;23.20;11.30;;;;;;;-1.38;67.79;93527.09;2047658;70;20232;-73
2022/02/10 01:34:32;;;;;;;25.95;10.80;;;;;;;-1.44;67.55;93531.94;2051046;70;20638;-71
2022/02/10 01:36:58;;;;;;;22.33;10.38;;;;;;;-1.63;68.33;93523.53;2047661;70;20598;-71
2022/02/10 01:39:30;;;;;;;22.95;10.68;;;;;;;-1.31;67.28;93535.59;2048310;70;20157;-70
2022/02/10 02:03:52;;;;;;;26.00;10.23;;;;;;;-1.88;67.31;93522.66;2051680;70;20241;-73
2022/02/10 02:06:34;;;;;;;19.67;9.40;;;;;;;-1.72;67.14;93529.34;2051265;70;20161;-69
2022/02/10 02:09:03;;;;;;;20.65;10.20;;;;;;;-1.85;66.56;93521.66;2051549;70;20154;-72
2022/02/10 02:11:28;;;;;;;21.88;9.45;;;;;;;-1.77;66.47;93516.34;2051410;70;20142;-69
2022/02/10 02:13:55;;;;;;;18.77;7.93;;;;;;;-1.56;65.49;93509.16;2051588;70;20142;-73
2022/02/10 02:16:25;;;;;;;17.73;8.10;;;;;;;-1.62;66.54;93502.94;2051525;70;20154;-71
2022/02/10 02:18:50;;;;;;;18.88;8.27;;;;;;;-1.74;67.00;93509.78;2051290;70;20149;-72
2022/02/10 02:21:19;;;;;;;18.83;8.50;;;;;;;-1.78;67.30;93504.53;2051721;70;20146;-71
2022/02/10 02:23:45;;;;;;;20.52;9.10;;;;;;;-1.74;66.84;93505.03;2051497;70;20157;-70
2022/02/10 02:26:16;;;;;;;22.35;8.98;;;;;;;-1.83;67.61;93494.28;2051409;70;20633;-71
2022/02/10 02:28:46;;;;;;;17.55;7.75;;;;;;;-1.72;67.46;93499.72;2048376;70;20177;-72
2022/02/10 02:31:17;;;;;;;15.93;7.53;;;;;;;-1.67;66.80;93498.19;2053735;70;20197;-71
2022/02/10 03:06:26;;;;;;;12.68;5.00;;;;;;;-1.90;67.90;93484.53;2048578;70;20573;-73
2022/02/10 03:08:56;;;;;;;9.65;5.05;;;;;;;-1.80;67.72;93479.44;2053501;70;20162;-73
2022/02/10 03:11:21;;;;;;;6.80;4.32;;;;;;;-1.62;66.37;93478.06;2051097;70;20292;-72
2022/02/10 03:14:13;;;;;;;7.93;4.40;;;;;;;-1.86;68.13;93476.72;2048083;70;20146;-71
2022/02/10 04:16:26;;;;;;;13.02;5.68;;;;;;;-2.18;68.37;93470.16;2051245;70;20164;-70
2022/02/10 04:29:40;;;;;;;14.98;8.38;;;;;;;-2.25;67.95;93476.19;2051185;70;20130;-74
2022/02/10 04:58:25;;;;;;;11.55;6.53;;;;;;;-1.93;67.48;93441.38;2048021;70;20149;-71
2022/02/10 05:35:35;;;;;;;22.73;9.98;;;;;;;-2.39;67.40;93431.13;2051913;70;20201;-69
2022/02/10 05:49:05;;;;;;;25.27;14.75;;;;;;;-2.76;69.76;93442.56;2049930;70;20174;-68
2022/02/10 07:07:07;;;;;;;26.65;14.73;;;;;;;-2.43;68.34;93472.78;2048528;70;20254;-71
2022/02/10 07:56:33;;;;;;;38.30;20.08;;;;;;;-2.19;68.83;93461.13;2051756;70;20511;-71
2022/02/10 08:17:55;;;;;;;44.22;23.25;;;;;;;-2.06;67.40;93444.00;2051918;70;20146;-71
2022/02/10 08:56:14;;;;;;;68.68;31.00;;;;;;;1.65;66.69;93456.59;2041246;70;20270;-72
2022/02/10 09:06:15;;;;;;;51.10;23.73;;;;;;;2.86;62.43;93466.88;2051913;70;20237;-75
2022/02/10 10:02:50;;;;;;;19.95;7.00;;;;;;;8.41;42.56;93445.00;2051969;70;20209;-76
2022/02/10 10:08:03;;;;;;;6.93;4.53;;;;;;;9.27;42.16;93446.13;2051944;70;20158;-77
2022/02/10 10:26:51;;;;;;;9.05;3.42;;;;;;;10.64;38.30;93424.00;2052028;70;20172;-74
2022/02/10 10:54:24;;;;;;;25.05;4.53;;;;;;;13.61;33.59;93385.00;2052018;70;20146;-71
2022/02/10 10:56:54;;;;;;;5.65;3.85;;;;;;;13.23;31.70;93376.34;2051889;70;20154;-74
2022/02/10 10:59:52;;;;;;;7.50;3.83;;;;;;;14.01;31.70;93371.78;2051840;70;20173;-69
2022/02/10 11:39:13;;;;;;;6.97;3.13;;;;;;;25.28;18.80;93333.47;2053652;70;20495;-77
2022/02/10 11:41:48;;;;;;;6.75;4.57;;;;;;;23.32;19.93;93323.84;2051307;70;20213;-76
2022/02/10 11:48:23;;;;;;;5.93;3.65;;;;;;;24.15;20.30;93320.63;2051533;70;20541;-74
2022/02/10 12:00:13;;;;;;;5.10;2.60;;;;;;;27.64;16.57;93300.06;2053554;70;20180;-78
2022/02/10 13:31:21;;;;;;;17.50;7.65;;;;;;;12.53;32.25;93163.63;2051384;70;20289;-71
2022/02/10 14:13:50;;;;;;;14.55;6.47;;;;;;;11.95;35.82;93142.44;2051880;70;20130;-72
2022/02/10 14:18:55;;;;;;;16.75;6.30;;;;;;;11.13;38.01;93131.59;2053977;70;20525;-71
2022/02/10 14:21:30;;;;;;;15.68;8.73;;;;;;;11.16;37.17;93129.63;2048579;70;20142;-72
2022/02/10 14:26:31;;;;;;;16.52;6.95;;;;;;;10.02;40.25;93121.94;2051836;70;20262;-72
2022/02/10 14:28:57;;;;;;;23.15;6.90;;;;;;;9.72;41.70;93126.94;2051813;70;20150;-74
2022/02/10 14:31:23;;;;;;;14.80;5.72;;;;;;;9.70;40.86;93106.38;2051716;70;20170;-73
2022/02/10 14:33:50;;;;;;;16.90;5.68;;;;;;;9.45;41.76;93106.72;2051248;70;20138;-73
2022/02/10 15:33:41;;;;;;;35.97;15.82;;;;;;;6.72;48.75;93123.88;2050708;70;20189;-75
2022/02/10 15:55:45;;;;;;;30.67;15.40;;;;;;;6.37;50.14;93120.34;2051520;70;20150;-71
2022/02/10 16:18:19;;;;;;;31.67;16.52;;;;;;;5.33;52.75;93103.22;2051578;70;20142;-74
2022/02/10 16:20:57;;;;;;;38.80;19.58;;;;;;;5.60;51.42;93097.84;2051608;70;20225;-73
2022/02/10 16:23:24;;;;;;;41.47;20.63;;;;;;;5.59;51.29;93099.88;2051510;70;20130;-73
2022/02/10 16:26:07;;;;;;;34.35;18.15;;;;;;;5.61;50.88;93097.25;2051265;70;20582;-76
2022/02/10 16:28:35;;;;;;;33.85;15.20;;;;;;;4.99;54.38;93098.91;2051534;70;20162;-74
2022/02/10 16:31:01;;;;;;;32.70;16.63;;;;;;;5.15;52.49;93093.25;2051445;70;20193;-72
2022/02/10 16:33:31;;;;;;;44.42;19.90;;;;;;;5.18;53.09;93095.66;2051154;70;20154;-74
2022/02/10 16:35:59;;;;;;;41.53;21.05;;;;;;;5.17;52.58;93105.31;2051006;70;20193;-73
2022/02/10 16:38:26;;;;;;;42.78;19.83;;;;;;;5.33;51.35;93103.22;2051489;70;20671;-73
2022/02/10 16:40:52;;;;;;;36.92;14.40;;;;;;;5.46;50.97;93097.38;2051565;70;20593;-74
2022/02/10 16:47:10;;;;;;;30.15;13.98;;;;;;;4.80;53.40;93091.00;2050985;70;20176;-73
2022/02/10 16:49:39;;;;;;;39.20;18.02;;;;;;;4.85;53.20;93083.72;2051520;70;20173;-77
2022/02/10 16:52:07;;;;;;;34.15;17.15;;;;;;;4.98;52.09;93083.47;2051469;70;20155;-74
2022/02/10 16:54:39;;;;;;;34.42;16.35;;;;;;;4.86;53.33;93090.81;2051445;70;20264;-71
2022/02/10 16:57:20;;;;;;;30.58;15.18;;;;;;;4.74;53.45;93087.69;2050879;70;20658;-71
2022/02/10 17:02:41;;;;;;;39.10;14.43;;;;;;;4.76;52.43;93106.63;2051193;70;20170;-71
2022/02/10 17:27:26;;;;;;;35.53;16.90;;;;;;;3.89;55.80;93108.66;2052068;70;20241;-74
2022/02/10 17:33:14;;;;;;;31.83;15.63;;;;;;;4.23;54.70;93122.19;2051620;70;20138;-80
2022/02/10 17:51:30;;;;;;;40.72;21.63;;;;;;;3.69;55.63;93113.13;2051889;70;20157;-70
2022/02/10 17:53:58;;;;;;;41.03;20.02;;;;;;;3.69;55.28;93115.91;2051765;70;20178;-76
2022/02/10 17:56:26;;;;;;;33.30;16.98;;;;;;;3.06;58.53;93121.16;2051652;70;20242;-76
2022/02/10 17:58:52;;;;;;;41.83;18.15;;;;;;;3.31;56.87;93127.00;2052123;70;20165;-73
2022/02/10 18:01:18;;;;;;;37.63;17.90;;;;;;;3.17;56.25;93114.53;2051471;70;20174;-73
2022/02/10 18:03:44;;;;;;;39.75;18.33;;;;;;;3.19;56.04;93114.72;2051713;70;20626;-74
2022/02/10 18:13:50;;;;;;;40.00;20.08;;;;;;;3.24;55.55;93133.28;2051748;70;20146;-71
2022/02/10 18:16:24;;;;;;;54.22;24.92;;;;;;;3.22;55.38;93135.88;2051410;70;20243;-71
2022/02/10 18:18:55;;;;;;;64.30;29.85;;;;;;;3.20;56.53;93133.63;2051498;70;20155;-69
2022/02/10 18:26:18;;;;;;;54.30;25.05;;;;;;;2.91;57.92;93148.94;2051555;70;20143;-71
2022/02/10 18:28:55;;;;;;;53.83;25.42;;;;;;;2.94;57.40;93153.41;2051541;70;20224;-70
2022/02/10 19:09:54;;;;;;;74.07;35.58;;;;;;;2.41;59.34;93148.34;2051162;70;20142;-71
2022/02/10 19:12:18;;;;;;;61.40;32.03;;;;;;;2.35;59.11;93161.63;2048826;70;20143;-74
2022/02/10 19:15:03;;;;;;;70.10;37.28;;;;;;;2.25;58.94;93151.03;2053900;70;20150;-72
2022/02/10 19:17:29;;;;;;;63.83;32.47;;;;;;;1.97;59.20;93157.31;2048131;70;20229;-71
2022/02/10 19:19:55;;;;;;;60.15;31.65;;;;;;;2.12;59.28;93158.72;2051491;70;20549;-72
2022/02/10 19:22:21;;;;;;;77.68;40.67;;;;;;;2.25;58.67;93156.59;2050848;70;20123;-71
2022/02/10 19:24:48;;;;;;;76.03;40.58;;;;;;;2.24;59.91;93154.34;2048391;70;20166;-74
2022/02/10 19:27:16;;;;;;;66.85;35.58;;;;;;;2.04;60.94;93164.94;2051594;70;20249;-71
2022/02/10 19:29:44;;;;;;;69.18;35.22;;;;;;;1.83;61.11;93169.03;2048193;70;20533;-71
2022/02/10 19:32:14;;;;;;;64.63;33.15;;;;;;;2.05;60.38;93160.13;2051601;70;20150;-72
2022/02/10 19:34:40;;;;;;;63.95;32.95;;;;;;;2.03;59.79;93166.25;2051576;70;20694;-71
2022/02/10 19:37:06;;;;;;;57.55;32.30;;;;;;;2.10;60.58;93170.34;2051553;70;20154;-77
2022/02/10 19:39:36;;;;;;;56.40;33.30;;;;;;;2.23;60.26;93167.47;2051541;70;20150;-74
2022/02/10 19:42:02;;;;;;;61.88;31.65;;;;;;;1.82;61.38;93170.31;2051722;70;20180;-77
2022/02/10 19:44:28;;;;;;;47.38;24.05;;;;;;;1.96;60.38;93178.03;2051699;70;20149;-75
2022/02/10 19:46:57;;;;;;;39.17;21.10;;;;;;;1.78;61.07;93165.84;2050834;70;20248;-73
2022/02/10 19:49:24;;;;;;;50.70;26.20;;;;;;;1.99;60.86;93171.38;2048382;70;20274;-73
2022/02/10 19:51:50;;;;;;;53.30;26.70;;;;;;;1.89;60.20;93175.94;2051590;70;20205;-73
2022/02/10 19:54:23;;;;;;;63.08;31.42;;;;;;;1.85;59.85;93177.56;2053838;70;20149;-70
2022/02/10 19:56:49;;;;;;;57.05;27.98;;;;;;;1.71;61.53;93180.41;2051683;70;20142;-70
2022/02/10 19:59:19;;;;;;;60.95;31.10;;;;;;;1.74;60.52;93171.00;2051442;70;20162;-73
2022/02/10 20:01:45;;;;;;;53.08;27.20;;;;;;;1.79;61.52;93172.16;2053611;70;20150;-73
2022/02/10 20:04:12;;;;;;;49.40;25.13;;;;;;;1.66;61.79;93177.78;2051458;70;20157;-72
2022/02/10 20:06:38;;;;;;;45.45;24.50;;;;;;;1.79;60.35;93177.72;2051513;70;20149;-71
2022/02/10 20:09:05;;;;;;;32.72;13.85;;;;;;;1.99;61.34;93174.16;2051573;70;20181;-71
2022/02/10 20:11:31;;;;;;;38.60;22.42;;;;;;;2.04;59.64;93180.88;2051523;70;20598;-72
2022/02/10 20:13:56;;;;;;;38.80;21.95;;;;;;;1.58;61.50;93190.84;2048417;70;20158;-71
2022/02/10 20:16:22;;;;;;;39.42;20.55;;;;;;;1.41;61.33;93191.97;2051412;70;20199;-74
2022/02/10 20:18:48;;;;;;;39.60;20.42;;;;;;;1.34;61.06;93200.97;2045459;70;20181;-74
2022/02/10 20:21:15;;;;;;;80.65;35.08;;;;;;;1.55;60.54;93200.22;2051388;70;20193;-71
2022/02/10 20:23:41;;;;;;;57.67;26.65;;;;;;;1.48;60.29;93199.63;2051527;70;20145;-74
2022/02/10 20:26:07;;;;;;;34.88;17.00;;;;;;;1.38;62.27;93200.66;2051503;70;20143;-74
2022/02/10 20:28:33;;;;;;;71.47;32.47;;;;;;;1.47;60.58;93209.25;2051555;70;20174;-73
2022/02/10 20:31:03;;;;;;;68.65;29.92;;;;;;;1.34;60.91;93208.56;2051520;70;20146;-75
2022/02/10 20:33:30;;;;;;;59.65;28.40;;;;;;;1.31;60.22;93207.59;2051530;70;20180;-71
2022/02/10 20:35:58;;;;;;;57.47;26.65;;;;;;;1.17;61.20;93204.09;2051575;70;20161;-72
2022/02/10 20:38:25;;;;;;;53.10;24.80;;;;;;;1.17;60.80;93215.19;2051597;70;20181;-75
2022/02/10 20:40:59;;;;;;;54.03;25.63;;;;;;;1.06;61.21;93204.34;2051581;70;20169;-71
2022/02/10 20:43:25;;;;;;;61.85;26.92;;;;;;;1.23;60.68;93210.25;2051232;70;20138;-72
2022/02/10 20:45:58;;;;;;;42.95;22.08;;;;;;;1.42;59.41;93218.44;2051157;70;20146;-71
2022/02/10 20:48:26;;;;;;;47.95;23.05;;;;;;;1.42;60.35;93212.13;2051321;70;20169;-72
2022/02/10 20:50:56;;;;;;;45.78;20.90;;;;;;;1.31;60.93;93210.34;2051461;70;20150;-74
2022/02/10 20:53:27;;;;;;;33.17;15.55;;;;;;;1.40;60.43;93211.94;2051411;70;20178;-71
2022/02/10 20:55:54;;;;;;;49.22;22.08;;;;;;;1.30;60.92;93222.00;2051371;70;20142;-73
2022/02/10 20:58:23;;;;;;;51.97;22.35;;;;;;;0.98;62.63;93228.47;2051266;70;20146;-75
2022/02/10 21:00:51;;;;;;;53.97;24.25;;;;;;;1.11;61.60;93227.72;2051077;70;20150;-74
2022/02/10 21:03:18;;;;;;;48.42;23.08;;;;;;;1.14;61.27;93221.81;2051276;70;20154;-72
2022/02/10 21:05:45;;;;;;;45.70;20.67;;;;;;;1.15;61.29;93220.56;2051307;70;20306;-71
2022/02/10 21:08:17;;;;;;;30.15;14.05;;;;;;;1.39;60.79;93222.28;2051268;70;20142;-73
2022/02/10 21:10:43;;;;;;;39.20;19.63;;;;;;;1.26;60.34;93208.47;2051207;70;20586;-72
2022/02/10 21:13:11;;;;;;;68.38;27.90;;;;;;;1.21;61.45;93201.00;2047859;70;20169;-76
2022/02/10 21:15:42;;;;;;;50.47;22.05;;;;;;;1.04;62.72;93209.69;2050905;70;20226;-72
2022/02/10 21:18:08;;;;;;;42.80;18.42;;;;;;;1.30;61.85;93206.09;2051245;70;20514;-71
2022/02/10 21:20:38;;;;;;;41.28;18.30;;;;;;;1.01;63.22;93205.22;2048001;70;20297;-71
2022/02/10 21:25:55;;;;;;;32.78;16.88;;;;;;;1.01;62.56;93214.28;2047109;70;20530;-70
2022/02/10 21:28:27;;;;;;;38.80;18.35;;;;;;;0.86;62.85;93214.09;2047788;70;20160;-71
2022/02/10 21:30:56;;;;;;;32.65;14.75;;;;;;;0.83;61.81;93214.44;2051116;70;20626;-72
2022/02/10 21:39:00;;;;;;;29.83;15.07;;;;;;;1.02;62.10;93226.88;2050829;70;20282;-73
2022/02/10 21:47:33;;;;;;;18.83;9.82;;;;;;;1.27;62.30;93201.63;2050892;70;20220;-72
2022/02/10 22:18:51;;;;;;;8.57;3.58;;;;;;;2.12;56.55;93189.25;2051672;70;20158;-76
2022/02/10 22:21:23;;;;;;;9.68;3.92;;;;;;;2.10;56.44;93178.69;2051703;70;20154;-71
2022/02/10 22:23:49;;;;;;;7.88;3.55;;;;;;;2.24;56.31;93182.13;2051836;70;20155;-71
2022/02/10 22:26:27;;;;;;;6.35;3.08;;;;;;;2.29;56.97;93179.22;2048168;70;20154;-73
2022/02/10 22:36:22;;;;;;;12.35;6.47;;;;;;;1.80;58.03;93179.19;2051629;70;20187;-71
2022/02/10 22:38:54;;;;;;;16.40;6.72;;;;;;;1.43;59.49;93192.19;2050337;70;20589;-83
2022/02/10 22:41:21;;;;;;;17.23;7.50;;;;;;;1.07;61.38;93194.00;2053794;70;20196;-79
2022/02/10 22:43:49;;;;;;;13.40;7.25;;;;;;;1.35;60.84;93185.06;2051744;70;20201;-70
2022/02/10 22:46:17;;;;;;;14.35;6.32;;;;;;;1.59;59.78;93172.91;2051369;70;20243;-71
2022/02/10 22:48:44;;;;;;;10.60;5.47;;;;;;;1.44;59.54;93167.94;2051843;70;20238;-80
2022/02/10 22:51:15;;;;;;;9.75;5.32;;;;;;;1.47;60.62;93167.63;2051863;70;20147;-71
2022/02/10 22:53:41;;;;;;;12.98;5.95;;;;;;;1.54;59.92;93166.19;2051898;70;20693;-81
2022/02/10 22:56:13;;;;;;;13.90;5.93;;;;;;;1.34;60.57;93175.25;2051799;70;20146;-76
2022/02/10 22:58:39;;;;;;;11.40;6.47;;;;;;;1.57;59.58;93162.34;2051298;70;20241;-74
2022/02/10 23:01:10;;;;;;;12.65;5.97;;;;;;;1.62;59.21;93166.28;2053838;70;20577;-75
2022/02/10 23:03:36;;;;;;;11.52;5.68;;;;;;;1.70;58.84;93162.28;2051814;70;20146;-75
2022/02/10 23:06:04;;;;;;;11.30;5.75;;;;;;;1.68;59.34;93161.31;2048363;70;20237;-74
2022/02/10 23:08:30;;;;;;;10.02;5.65;;;;;;;0.90;62.22;93172.19;2051832;70;20145;-71
2022/02/10 23:10:55;;;;;;;10.52;5.43;;;;;;;1.11;61.28;93170.22;2051872;70;20589;-75
2022/02/10 23:13:28;;;;;;;8.85;5.70;;;;;;;1.21;60.77;93184.38;2051909;70;20221;-79
2022/02/10 23:15:59;;;;;;;10.00;5.72;;;;;;;1.46;59.72;93188.31;2051791;70;20233;-76
2022/02/10 23:18:27;;;;;;;9.68;5.70;;;;;;;1.39;59.74;93182.72;2051678;70;20624;-84
2022/02/10 23:20:56;;;;;;;12.52;6.00;;;;;;;1.05;61.56;93197.31;2053888;70;20146;-81
2022/02/10 23:23:24;;;;;;;11.50;5.85;;;;;;;1.08;61.16;93206.59;2051996;70;20147;-75
2022/02/10 23:25:52;;;;;;;11.77;5.45;;;;;;;1.07;61.11;93199.56;2048710;70;20518;-72
2022/02/10 23:28:23;;;;;;;10.15;5.25;;;;;;;1.32;59.84;93189.66;2051863;70;20478;-73
2022/02/10 23:30:50;;;;;;;7.85;4.93;;;;;;;1.37;59.51;93186.00;2053770;69;20263;-72
2022/02/10 23:33:21;;;;;;;12.35;5.03;;;;;;;1.32;60.36;93170.22;2051774;70;20149;-75
2022/02/10 23:38:15;;;;;;;8.57;5.00;;;;;;;1.16;61.32;93169.34;2050910;70;20654;-72
2022/02/10 23:43:26;;;;;;;8.18;4.35;;;;;;;1.52;61.41;93157.69;2045728;70;20127;-74
2022/02/10 23:45:52;;;;;;;7.90;3.75;;;;;;;1.57;61.34;93156.06;2050408;70;20256;-74
2022/02/10 23:48:18;;;;;;;12.63;4.20;;;;;;;1.77;60.10;93161.59;2048237;70;20157;-72
2022/02/10 23:50:43;;;;;;;9.13;5.03;;;;;;;1.52;61.04;93171.56;2048217;70;20177;-74
2022/02/10 23:53:09;;;;;;;8.13;4.40;;;;;;;1.66;60.42;93161.88;2048296;70;20158;-73
2022/02/10 23:55:38;;;;;;;10.20;4.40;;;;;;;1.74;60.32;93167.47;2048198;70;20595;-73
